createdAt,value
2018-05-18T00:01:54.988Z,5.03
2018-05-18T00:04:22.505Z,5.17
2018-05-18T00:06:50.057Z,5.30
2018-05-18T00:09:17.569Z,4.97
2018-05-18T00:11:45.090Z,4.87
2018-05-18T00:14:12.625Z,4.70
2018-05-18T00:16:40.144Z,4.70
2018-05-18T00:19:07.685Z,4.60
2018-05-18T00:21:35.205Z,4.70
2018-05-18T00:24:02.741Z,4.30
2018-05-18T00:26:31.016Z,4.23
2018-05-18T00:28:59.314Z,4.73
2018-05-18T00:31:26.828Z,5.50
2018-05-18T00:33:54.389Z,5.13
2018-05-18T00:36:21.900Z,5.73
2018-05-18T00:38:49.443Z,5.90
2018-05-18T00:41:16.962Z,5.63
2018-05-18T00:43:44.495Z,4.60
2018-05-18T00:46:12.008Z,4.60
2018-05-18T00:48:40.309Z,4.53
2018-05-18T00:51:07.828Z,4.80
2018-05-18T00:53:35.368Z,4.20
2018-05-18T00:56:02.896Z,5.07
2018-05-18T00:58:30.437Z,5.70
2018-05-18T01:00:58.717Z,3.70
2018-05-18T01:03:26.257Z,4.27
2018-05-18T01:05:53.772Z,5.50
2018-05-18T01:08:21.305Z,4.40
2018-05-18T01:10:48.823Z,4.97
2018-05-18T01:13:16.364Z,4.00
2018-05-18T01:15:43.952Z,3.37
2018-05-18T01:18:11.415Z,3.97
2018-05-18T01:20:39.719Z,4.23
2018-05-18T01:23:07.236Z,4.47
2018-05-18T01:25:34.787Z,5.63
2018-05-18T01:28:02.305Z,4.83
2018-05-18T01:30:29.832Z,4.67
2018-05-18T01:32:58.108Z,4.90
2018-05-18T01:35:25.637Z,3.93
2018-05-18T01:37:53.156Z,4.83
2018-05-18T01:40:20.691Z,4.83
2018-05-18T01:42:48.976Z,4.40
2018-05-18T01:45:17.277Z,5.00
2018-05-18T01:47:44.792Z,3.40
2018-05-18T01:50:12.323Z,3.70
2018-05-18T01:52:39.839Z,3.73
2018-05-18T01:55:08.139Z,3.60
2018-05-18T01:57:35.648Z,4.03
2018-05-18T02:00:03.180Z,4.47
2018-05-18T02:02:30.728Z,3.40
2018-05-18T02:04:58.268Z,3.40
2018-05-18T02:07:25.779Z,3.83
2018-05-18T02:09:53.312Z,3.80
2018-05-18T02:12:20.823Z,4.60
2018-05-18T02:14:49.139Z,4.47
2018-05-18T02:17:16.662Z,4.50
2018-05-18T02:19:44.171Z,3.80
2018-05-18T02:22:11.708Z,4.60
2018-05-18T02:24:39.231Z,4.63
2018-05-18T02:27:06.763Z,4.03
2018-05-18T02:29:34.288Z,4.70
2018-05-18T02:32:01.824Z,4.23
2018-05-18T02:34:30.110Z,5.47
2018-05-18T02:36:58.411Z,4.70
2018-05-18T02:39:25.926Z,4.43
2018-05-18T02:41:53.471Z,4.87
2018-05-18T02:44:20.993Z,4.97
2018-05-18T02:46:48.527Z,4.17
2018-05-18T02:49:16.807Z,4.60
2018-05-18T02:51:45.109Z,3.97
2018-05-18T02:54:12.628Z,4.80
2018-05-18T02:56:40.927Z,6.63
2018-05-18T02:59:09.209Z,5.10
2018-05-18T03:01:36.748Z,4.60
2018-05-18T03:04:05.048Z,4.40
2018-05-18T03:06:32.576Z,5.27
2018-05-18T03:09:00.095Z,4.90
2018-05-18T03:11:27.628Z,4.40
2018-05-18T03:13:55.144Z,5.53
2018-05-18T03:16:22.681Z,4.57
2018-05-18T03:18:50.193Z,4.43
2018-05-18T03:21:18.496Z,4.83
2018-05-18T03:23:46.008Z,4.93
2018-05-18T03:26:13.555Z,4.27
2018-05-18T03:28:41.080Z,4.87
2018-05-18T03:31:08.596Z,5.10
2018-05-18T03:33:36.140Z,5.07
2018-05-18T03:36:03.664Z,4.80
2018-05-18T03:38:31.200Z,4.93
2018-05-18T03:40:58.720Z,4.27
2018-05-18T03:43:26.259Z,6.47
2018-05-18T03:45:54.543Z,4.03
2018-05-18T03:48:22.076Z,4.97
2018-05-18T03:50:49.591Z,5.73
2018-05-18T03:53:17.123Z,5.10
2018-05-18T03:55:44.648Z,3.93
2018-05-18T03:58:12.183Z,4.33
2018-05-18T04:00:40.472Z,4.00
2018-05-18T04:03:19.760Z,4.10
2018-05-18T04:06:00.812Z,4.93
2018-05-18T04:08:51.751Z,6.80
2018-05-18T04:11:19.276Z,5.40
2018-05-18T04:13:46.813Z,6.00
2018-05-18T04:16:14.335Z,6.00
2018-05-18T04:18:41.875Z,6.50
2018-05-18T04:21:09.409Z,6.43
2018-05-18T04:23:36.951Z,5.83
2018-05-18T04:26:04.469Z,7.07
2018-05-18T04:28:32.008Z,6.63
2018-05-18T04:30:59.516Z,6.10
2018-05-18T04:33:27.817Z,5.73
2018-05-18T04:35:55.336Z,7.40
2018-05-18T04:38:22.873Z,8.40
2018-05-18T04:40:50.391Z,7.27
2018-05-18T04:43:17.945Z,7.40
2018-05-18T04:45:45.465Z,7.37
2018-05-18T04:48:12.983Z,7.00
2018-05-18T04:50:40.519Z,7.13
2018-05-18T04:53:08.805Z,7.90
2018-05-18T04:55:36.350Z,7.57
2018-05-18T04:58:04.641Z,7.70
2018-05-18T05:00:32.941Z,6.57
2018-05-18T05:03:00.460Z,7.20
2018-05-18T05:05:28.829Z,9.60
2018-05-18T05:07:56.338Z,10.77
2018-05-18T05:10:23.877Z,8.17
2018-05-18T05:12:52.164Z,7.77
2018-05-18T05:15:19.705Z,7.23
2018-05-18T05:17:48.028Z,8.03
2018-05-18T05:20:15.540Z,6.73
2018-05-18T05:22:43.820Z,9.97
2018-05-18T05:25:12.124Z,9.07
2018-05-18T05:27:39.640Z,7.27
2018-05-18T05:30:07.181Z,7.10
2018-05-18T05:32:34.700Z,7.90
2018-05-18T05:35:02.241Z,8.70
2018-05-18T05:37:30.541Z,9.30
2018-05-18T05:39:58.066Z,6.77
2018-05-18T05:42:25.610Z,7.30
2018-05-18T05:44:53.137Z,9.73
2018-05-18T05:47:20.675Z,10.30
2018-05-18T05:49:48.960Z,8.50
2018-05-18T05:52:16.500Z,7.93
2018-05-18T05:54:44.796Z,9.30
2018-05-18T05:57:12.338Z,10.70
2018-05-18T05:59:40.623Z,13.50
2018-05-18T06:02:08.927Z,12.90
2018-05-18T06:04:36.452Z,10.40
2018-05-18T06:07:04.760Z,10.90
2018-05-18T06:09:32.280Z,9.07
2018-05-18T06:12:00.608Z,9.40
2018-05-18T06:14:28.141Z,10.90
2018-05-18T06:16:56.556Z,9.60
2018-05-18T06:19:24.086Z,9.20
2018-05-18T06:21:52.085Z,8.67
2018-05-18T06:24:19.627Z,8.07
2018-05-18T06:26:47.167Z,8.87
2018-05-18T06:29:15.941Z,8.10
2018-05-18T06:31:44.260Z,9.20
2018-05-18T06:34:11.777Z,9.97
2018-05-18T06:36:39.296Z,11.40
2018-05-18T06:39:06.831Z,10.07
2018-05-18T06:41:34.351Z,10.80
2018-05-18T06:44:01.892Z,8.57
2018-05-18T06:46:29.416Z,8.00
2018-05-18T06:48:56.961Z,11.50
2018-05-18T06:51:24.484Z,10.07
2018-05-18T06:53:52.020Z,9.23
2018-05-18T06:56:19.532Z,7.97
2018-05-18T06:58:47.883Z,6.97
2018-05-18T07:01:15.368Z,7.60
2018-05-18T07:03:43.763Z,9.87
2018-05-18T07:06:11.221Z,11.20
2018-05-18T07:08:38.762Z,11.30
2018-05-18T07:11:07.568Z,12.60
2018-05-18T07:13:35.115Z,10.93
2018-05-18T07:16:03.397Z,9.70
2018-05-18T07:18:31.698Z,8.23
2018-05-18T07:20:59.220Z,8.90
2018-05-18T07:23:26.761Z,8.73
2018-05-18T07:25:54.277Z,10.70
2018-05-18T07:28:22.569Z,9.23
2018-05-18T07:30:50.121Z,10.30
2018-05-18T07:33:18.404Z,9.67
2018-05-18T07:35:45.952Z,9.70
2018-05-18T07:38:14.234Z,8.67
2018-05-18T07:40:42.548Z,8.70
2018-05-18T07:43:10.082Z,10.60
2018-05-18T07:45:37.621Z,9.17
2018-05-18T07:48:05.908Z,8.97
2018-05-18T07:50:34.213Z,9.80
2018-05-18T07:53:01.741Z,10.00
2018-05-18T07:55:30.052Z,10.50
2018-05-18T07:57:57.592Z,9.87
2018-05-18T08:00:25.907Z,9.43
2018-05-18T08:02:53.423Z,10.63
2018-05-18T08:05:21.736Z,9.93
2018-05-18T08:07:49.349Z,12.57
2018-05-18T08:10:16.812Z,11.30
2018-05-18T08:12:45.096Z,9.80
2018-05-18T08:15:13.460Z,10.63
2018-05-18T08:17:40.949Z,9.20
2018-05-18T08:20:08.484Z,9.23
2018-05-18T08:22:36.005Z,8.17
2018-05-18T08:25:03.652Z,9.50
2018-05-18T08:27:31.168Z,10.37
2018-05-18T08:29:59.571Z,9.67
2018-05-18T08:32:33.100Z,9.23
2018-05-18T08:35:00.765Z,7.90
2018-05-18T08:37:28.288Z,8.13
2018-05-18T08:39:56.578Z,8.00
2018-05-18T08:42:24.112Z,9.73
2018-05-18T08:44:51.640Z,8.67
2018-05-18T08:47:19.188Z,10.47
2018-05-18T08:49:46.715Z,9.70
2018-05-18T08:52:15.020Z,9.50
2018-05-18T08:54:42.540Z,10.00
2018-05-18T08:57:10.849Z,10.47
2018-05-18T08:59:38.375Z,8.87
2018-05-18T09:02:07.743Z,10.30
2018-05-18T09:04:35.353Z,8.90
2018-05-18T09:07:04.176Z,8.23
2018-05-18T09:09:31.691Z,7.23
2018-05-18T09:11:59.223Z,8.60
2018-05-18T09:14:26.749Z,8.83
2018-05-18T09:16:54.290Z,8.60
2018-05-18T09:19:22.575Z,7.87
2018-05-18T09:21:50.886Z,9.87
2018-05-18T09:24:19.074Z,9.40
2018-05-18T09:26:46.623Z,11.10
2018-05-18T09:29:14.173Z,10.63
2018-05-18T09:31:41.699Z,9.87
2018-05-18T09:34:10.027Z,9.10
2018-05-18T09:36:37.582Z,10.27
2018-05-18T09:39:05.125Z,8.73
2018-05-18T09:41:32.644Z,9.40
2018-05-18T09:44:00.188Z,8.23
2018-05-18T09:46:27.711Z,8.13
2018-05-18T09:48:55.256Z,8.40
2018-05-18T09:51:23.546Z,7.97
2018-05-18T09:53:51.120Z,8.67
2018-05-18T09:56:18.640Z,7.90
2018-05-18T09:58:46.945Z,7.20
2018-05-18T10:01:14.470Z,9.10
2018-05-18T10:03:42.795Z,7.00
2018-05-18T10:06:10.326Z,7.30
2018-05-18T10:08:38.640Z,8.13
2018-05-18T10:11:06.169Z,8.00
2018-05-18T10:13:34.588Z,8.03
2018-05-18T10:16:02.111Z,7.90
2018-05-18T10:18:30.432Z,7.47
2018-05-18T10:20:57.972Z,6.83
2018-05-18T10:23:25.492Z,7.60
2018-05-18T10:25:53.796Z,8.97
2018-05-18T10:28:28.040Z,8.30
2018-05-18T10:30:55.604Z,7.70
2018-05-18T10:33:23.128Z,7.43
2018-05-18T10:35:50.669Z,6.80
2018-05-18T10:38:18.952Z,7.70
2018-05-18T10:40:47.263Z,8.00
2018-05-18T10:43:14.788Z,8.23
2018-05-18T10:45:43.093Z,7.20
2018-05-18T10:48:10.621Z,6.93
2018-05-18T10:50:38.986Z,6.97
2018-05-18T10:53:07.282Z,6.77
2018-05-18T10:55:35.584Z,7.30
2018-05-18T10:58:03.106Z,7.20
2018-05-18T11:00:30.639Z,8.00
2018-05-18T11:02:58.155Z,8.80
2018-05-18T11:05:25.802Z,8.57
2018-05-18T11:07:53.245Z,7.90
2018-05-18T11:10:20.782Z,7.70
2018-05-18T11:12:48.307Z,6.87
2018-05-18T11:15:15.849Z,8.10
2018-05-18T11:17:43.393Z,8.60
2018-05-18T11:20:11.714Z,9.20
2018-05-18T11:22:39.246Z,9.73
2018-05-18T11:25:07.537Z,8.63
2018-05-18T11:27:35.085Z,8.00
2018-05-18T11:30:03.366Z,8.00
2018-05-18T11:32:31.673Z,7.70
2018-05-18T11:34:59.196Z,7.20
2018-05-18T11:37:27.503Z,7.57
2018-05-18T11:39:55.020Z,8.90
2018-05-18T11:42:22.556Z,8.00
2018-05-18T11:44:50.102Z,8.77
2018-05-18T11:47:17.750Z,7.93
2018-05-18T11:49:45.312Z,10.17
2018-05-18T11:52:12.876Z,8.07
2018-05-18T11:54:40.460Z,8.00
2018-05-18T11:57:08.244Z,7.30
2018-05-18T11:59:37.267Z,8.10
2018-05-18T12:02:05.588Z,8.07
2018-05-18T12:04:33.128Z,8.27
2018-05-18T12:07:00.664Z,8.40
2018-05-18T12:09:28.956Z,9.33
2018-05-18T12:11:56.480Z,8.87
2018-05-18T12:14:24.022Z,7.20
2018-05-18T12:16:51.557Z,8.00
2018-05-18T12:19:19.097Z,7.67
2018-05-18T12:21:46.629Z,9.37
2018-05-18T12:24:14.936Z,10.33
2018-05-18T12:26:42.783Z,8.47
2018-05-18T12:29:10.080Z,7.10
2018-05-18T12:31:37.639Z,8.67
2018-05-18T12:34:05.216Z,7.00
2018-05-18T12:36:32.741Z,7.17
2018-05-18T12:39:00.286Z,7.07
2018-05-18T12:41:28.571Z,7.93
2018-05-18T12:43:56.881Z,7.30
2018-05-18T12:46:24.402Z,6.13
2018-05-18T12:48:52.705Z,6.63
2018-05-18T12:51:20.224Z,9.13
2018-05-18T12:53:47.757Z,8.60
2018-05-18T12:56:15.297Z,6.83
2018-05-18T12:58:42.834Z,8.77
2018-05-18T13:01:10.351Z,7.60
2018-05-18T13:03:37.892Z,8.57
2018-05-18T13:06:05.432Z,8.20
2018-05-18T13:08:32.951Z,8.63
2018-05-18T13:11:00.488Z,8.27
2018-05-18T13:13:28.006Z,7.17
2018-05-18T13:15:55.575Z,8.57
2018-05-18T13:18:23.077Z,7.30
2018-05-18T13:20:50.617Z,7.87
2018-05-18T13:23:18.156Z,8.03
2018-05-18T13:25:45.693Z,7.17
2018-05-18T13:28:13.981Z,9.40
2018-05-18T13:30:41.607Z,7.57
2018-05-18T13:33:09.824Z,6.20
2018-05-18T13:35:37.352Z,7.53
2018-05-18T13:38:04.868Z,8.23
2018-05-18T13:40:32.413Z,8.33
2018-05-18T13:42:59.936Z,7.90
2018-05-18T13:45:27.478Z,7.30
2018-05-18T13:47:55.004Z,6.90
2018-05-18T13:50:22.542Z,7.80
2018-05-18T13:52:50.828Z,7.87
2018-05-18T13:55:18.393Z,8.83
2018-05-18T13:57:45.912Z,6.67
2018-05-18T14:00:13.429Z,7.70
2018-05-18T14:02:41.044Z,6.40
2018-05-18T14:05:08.505Z,7.03
2018-05-18T14:07:36.115Z,8.10
2018-05-18T14:10:03.677Z,8.30
2018-05-18T14:12:31.212Z,8.47
2018-05-18T14:14:59.492Z,7.83
2018-05-18T14:17:27.900Z,8.60
2018-05-18T14:19:55.543Z,8.80
2018-05-18T14:22:23.083Z,7.40
2018-05-18T14:24:50.595Z,7.90
2018-05-18T14:27:18.148Z,7.47
2018-05-18T14:29:45.663Z,8.80
2018-05-18T14:32:13.200Z,9.67
2018-05-18T14:34:40.720Z,8.27
2018-05-18T14:37:08.295Z,8.67
2018-05-18T14:39:35.811Z,8.57
2018-05-18T14:42:03.351Z,9.17
2018-05-18T14:44:30.975Z,8.67
2018-05-18T14:46:58.511Z,8.53
2018-05-18T14:49:26.799Z,9.43
2018-05-18T14:51:54.349Z,9.60
2018-05-18T14:54:22.644Z,8.60
2018-05-18T14:56:51.148Z,8.47
2018-05-18T14:59:18.705Z,8.87
2018-05-18T15:01:46.220Z,7.70
2018-05-18T15:04:13.760Z,8.50
2018-05-18T15:06:41.277Z,9.67
2018-05-18T15:09:08.812Z,8.80
2018-05-18T15:11:37.133Z,8.77
2018-05-18T15:14:04.681Z,9.30
2018-05-18T15:16:32.203Z,8.80
2018-05-18T15:19:00.513Z,9.77
2018-05-18T15:21:28.034Z,9.40
2018-05-18T15:23:55.583Z,10.70
2018-05-18T15:26:23.111Z,9.80
2018-05-18T15:28:50.724Z,8.50
2018-05-18T15:31:18.193Z,8.50
2018-05-18T15:33:45.756Z,8.30
2018-05-18T15:36:14.036Z,7.30
2018-05-18T15:38:41.597Z,9.00
2018-05-18T15:41:09.185Z,8.93
2018-05-18T15:43:36.725Z,8.70
2018-05-18T15:46:04.305Z,8.53
2018-05-18T15:48:31.849Z,8.63
2018-05-18T15:50:59.368Z,8.20
2018-05-18T15:53:26.919Z,8.50
2018-05-18T15:55:54.441Z,8.00
2018-05-18T15:58:21.961Z,8.17
2018-05-18T16:00:49.503Z,8.03
2018-05-18T16:03:17.028Z,7.37
2018-05-18T16:05:44.560Z,8.50
2018-05-18T16:08:12.852Z,7.40
2018-05-18T16:10:40.392Z,7.03
2018-05-18T16:13:08.688Z,8.23
2018-05-18T16:15:36.225Z,6.27
2018-05-18T16:18:04.520Z,6.90
2018-05-18T16:20:32.064Z,7.60
2018-05-18T16:23:00.380Z,6.03
2018-05-18T16:25:27.925Z,7.50
2018-05-18T16:27:55.530Z,7.47
2018-05-18T16:30:23.777Z,7.90
2018-05-18T16:32:51.296Z,5.93
2018-05-18T16:35:19.626Z,7.40
2018-05-18T16:37:47.147Z,6.87
2018-05-18T16:40:15.452Z,7.70
2018-05-18T16:42:42.964Z,8.03
2018-05-18T16:45:10.497Z,5.57
2018-05-18T16:47:38.016Z,7.40
2018-05-18T16:50:05.552Z,6.30
2018-05-18T16:52:33.077Z,8.80
2018-05-18T16:55:00.594Z,8.23
2018-05-18T16:57:28.892Z,7.70
2018-05-18T16:59:56.410Z,5.70
2018-05-18T17:02:23.942Z,5.93
2018-05-18T17:04:51.460Z,7.40
2018-05-18T17:07:19.003Z,7.30
2018-05-18T17:09:47.293Z,8.43
2018-05-18T17:12:14.828Z,6.40
2018-05-18T17:14:42.350Z,8.03
2018-05-18T17:17:09.892Z,7.70
2018-05-18T17:19:37.410Z,6.13
2018-05-18T17:22:04.953Z,5.73
2018-05-18T17:24:32.473Z,7.07
2018-05-18T17:27:00.016Z,7.10
2018-05-18T17:29:27.533Z,7.20
2018-05-18T17:31:55.069Z,6.77
2018-05-18T17:34:22.592Z,5.80
2018-05-18T17:36:50.894Z,6.10
2018-05-18T17:39:18.410Z,6.40
2018-05-18T17:41:46.729Z,7.30
2018-05-18T17:44:14.239Z,6.97
2018-05-18T17:46:41.788Z,5.30
2018-05-18T17:49:09.337Z,6.77
2018-05-18T17:51:36.862Z,7.33
2018-05-18T17:54:04.439Z,7.07
2018-05-18T17:56:31.953Z,7.43
2018-05-18T17:58:59.516Z,7.00
2018-05-18T18:01:27.804Z,6.70
2018-05-18T18:03:56.161Z,7.90
2018-05-18T18:06:23.660Z,7.33
2018-05-18T18:08:51.199Z,7.43
2018-05-18T18:11:19.487Z,7.00
2018-05-18T18:13:47.804Z,7.80
2018-05-18T18:16:15.315Z,7.40
2018-05-18T18:18:43.616Z,6.10
2018-05-18T18:21:11.131Z,5.90
2018-05-18T18:23:38.664Z,6.40
2018-05-18T18:26:06.191Z,6.67
2018-05-18T18:28:33.845Z,7.17
2018-05-18T18:31:01.283Z,7.97
2018-05-18T18:33:29.574Z,6.90
2018-05-18T18:35:57.879Z,6.73
2018-05-18T18:38:25.397Z,6.87
2018-05-18T18:40:52.936Z,6.07
2018-05-18T18:43:20.452Z,6.83
2018-05-18T18:45:47.988Z,7.10
2018-05-18T18:48:16.264Z,6.10
2018-05-18T18:50:44.574Z,8.40
2018-05-18T18:53:12.099Z,6.80
2018-05-18T18:55:40.399Z,6.10
2018-05-18T18:58:07.919Z,7.73
2018-05-18T19:00:35.452Z,7.13
2018-05-18T19:03:02.978Z,6.97
2018-05-18T19:05:30.515Z,6.80
2018-05-18T19:07:58.097Z,6.80
2018-05-18T19:10:25.592Z,5.60
2018-05-18T19:12:53.114Z,5.60
2018-05-18T19:15:21.421Z,6.40
2018-05-18T19:17:48.943Z,5.40
2018-05-18T19:20:16.476Z,5.43
2018-05-18T19:22:43.994Z,6.90
2018-05-18T19:25:11.550Z,5.90
2018-05-18T19:27:39.075Z,6.17
2018-05-18T19:30:06.597Z,6.70
2018-05-18T19:32:34.140Z,7.77
2018-05-18T19:35:01.656Z,7.10
2018-05-18T19:37:29.192Z,6.80
2018-05-18T19:39:56.709Z,6.10
2018-05-18T19:42:24.244Z,6.30
2018-05-18T19:44:51.756Z,5.07
2018-05-18T19:47:19.293Z,6.40
2018-05-18T19:49:46.811Z,6.87
2018-05-18T19:52:14.348Z,6.40
2018-05-18T19:54:41.867Z,5.43
2018-05-18T19:57:09.396Z,5.90
2018-05-18T19:59:36.918Z,7.50
2018-05-18T20:02:04.448Z,5.80
2018-05-18T20:04:31.964Z,7.13
2018-05-18T20:06:59.492Z,6.83
2018-05-18T20:09:27.003Z,5.00
2018-05-18T20:11:54.540Z,6.17
2018-05-18T20:14:22.064Z,5.80
2018-05-18T20:16:49.613Z,7.23
2018-05-18T20:19:17.134Z,5.67
2018-05-18T20:21:44.644Z,6.27
2018-05-18T20:24:12.177Z,6.43
2018-05-18T20:26:40.455Z,6.63
2018-05-18T20:29:08.752Z,6.30
2018-05-18T20:31:36.271Z,7.30
2018-05-18T20:34:03.806Z,6.63
2018-05-18T20:36:31.311Z,6.00
2018-05-18T20:38:59.619Z,6.00
2018-05-18T20:41:27.136Z,5.73
2018-05-18T20:43:54.667Z,5.27
2018-05-18T20:46:22.187Z,7.07
2018-05-18T20:48:49.732Z,6.20
2018-05-18T20:51:18.008Z,6.50
2018-05-18T20:53:46.308Z,6.30
2018-05-18T20:56:13.824Z,5.77
2018-05-18T20:58:41.352Z,7.37
2018-05-18T21:01:08.868Z,6.13
2018-05-18T21:03:37.258Z,6.23
2018-05-18T21:06:04.701Z,7.27
2018-05-18T21:08:33.021Z,6.00
2018-05-18T21:11:00.579Z,6.40
2018-05-18T21:13:28.095Z,5.60
2018-05-18T21:15:56.414Z,7.07
2018-05-18T21:18:23.963Z,7.87
2018-05-18T21:20:52.255Z,7.20
2018-05-18T21:23:19.777Z,6.47
2018-05-18T21:25:48.097Z,6.17
2018-05-18T21:28:15.665Z,6.70
2018-05-18T21:30:43.226Z,6.67
2018-05-18T21:33:10.752Z,6.97
2018-05-18T21:35:39.169Z,6.90
2018-05-18T21:38:06.692Z,5.30
2018-05-18T21:40:34.290Z,6.27
2018-05-18T21:43:01.813Z,7.07
2018-05-18T21:45:29.359Z,5.50
2018-05-18T21:47:56.876Z,8.20
2018-05-18T21:50:24.439Z,7.10
2018-05-18T21:52:52.029Z,7.37
2018-05-18T21:55:19.560Z,6.77
2018-05-18T21:57:47.073Z,6.00
2018-05-18T22:00:15.384Z,6.17
2018-05-18T22:02:42.904Z,6.50
2018-05-18T22:05:11.204Z,6.33
2018-05-18T22:07:39.485Z,5.83
2018-05-18T22:10:07.016Z,5.70
2018-05-18T22:12:34.533Z,6.33
2018-05-18T22:15:02.187Z,6.50
2018-05-18T22:17:29.699Z,4.90
2018-05-18T22:19:58.725Z,5.37
2018-05-18T22:22:26.266Z,5.60
2018-05-18T22:24:54.545Z,5.73
2018-05-18T22:27:22.855Z,6.00
2018-05-18T22:29:50.421Z,5.93
2018-05-18T22:32:17.962Z,8.20
2018-05-18T22:34:45.484Z,6.93
2018-05-18T22:37:13.106Z,7.00
2018-05-18T22:39:40.619Z,6.70
2018-05-18T22:42:08.925Z,7.20
2018-05-18T22:44:36.444Z,6.10
2018-05-18T22:47:03.983Z,6.60
2018-05-18T22:49:31.499Z,5.50
2018-05-18T22:51:59.093Z,6.00
2018-05-18T22:54:26.613Z,6.77
2018-05-18T22:56:54.913Z,6.47
2018-05-18T22:59:22.488Z,7.63
2018-05-18T23:01:50.026Z,8.13
2018-05-18T23:04:17.544Z,7.07
2018-05-18T23:06:45.088Z,9.20
2018-05-18T23:09:12.634Z,8.03
2018-05-18T23:11:40.191Z,8.23
2018-05-18T23:14:07.701Z,8.80
2018-05-18T23:16:35.253Z,6.80
2018-05-18T23:19:03.540Z,6.60
2018-05-18T23:21:31.056Z,5.90
2018-05-18T23:23:58.584Z,5.80
2018-05-18T23:26:26.106Z,6.30
2018-05-18T23:28:53.654Z,5.97
2018-05-18T23:31:21.175Z,6.97
2018-05-18T23:33:48.717Z,7.07
2018-05-18T23:36:17.005Z,6.40
2018-05-18T23:38:44.535Z,7.47
2018-05-18T23:41:12.152Z,6.10
2018-05-18T23:43:39.689Z,6.30
2018-05-18T23:46:07.204Z,6.30
2018-05-18T23:48:34.736Z,7.40
2018-05-18T23:51:02.258Z,7.10
2018-05-18T23:53:30.566Z,7.27
2018-05-18T23:55:58.088Z,8.67
2018-05-18T23:58:26.389Z,8.43
